Salina, Kansas
Current Conditions -  °F | °C
As of 11:53 PM on Wednesday 22 Oct 2014 (Local Time) from KSLN Reporting Station
Overcast Overcast  
Wind Chill: 64°   Ceiling: 10000
Heat Index: 64°   Visibility: 10mi
Dew Point: 58°   Wind: 8mph
Humidity: 80%   Direction: 190°S
Pressure: 30.06"   Gusts: NA
Location:  38.84°N, 97.61°W
Report Text: KSLN 230453Z AUTO 19007KT 10SM FEW080 OVC100 18/14 A3006 RMK AO2 SLP169 T01780144
Loading
Personal Weather Stations






























Interactive Weather Map New forecast layout! Learn more

10-Day Weather Forecast

Advertisements
Track Severe Weather on mobile